sensor_id;sensor_type;location;lat;lon;timestamp;temperature;humidity
23237;DHT22;11787;52.018;8.570;2023-04-01T00:01:56;9.70;99.90
23237;DHT22;11787;52.018;8.570;2023-04-01T00:04:21;9.70;99.90
23237;DHT22;11787;52.018;8.570;2023-04-01T00:06:47;9.70;99.90
23237;DHT22;11787;52.018;8.570;2023-04-01T00:09:13;9.70;99.90
23237;DHT22;11787;52.018;8.570;2023-04-01T00:11:39;9.70;99.90
23237;DHT22;11787;52.018;8.570;2023-04-01T00:14:05;9.70;99.90
23237;DHT22;11787;52.018;8.570;2023-04-01T00:16:31;9.70;99.90
23237;DHT22;11787;52.018;8.570;2023-04-01T00:18:56;9.70;99.90
23237;DHT22;11787;52.018;8.570;2023-04-01T00:21:22;9.70;99.90
23237;DHT22;11787;52.018;8.570;2023-04-01T00:23:49;9.70;99.90
23237;DHT22;11787;52.018;8.570;2023-04-01T00:26:15;9.70;99.90
23237;DHT22;11787;52.018;8.570;2023-04-01T00:28:44;9.70;99.90
23237;DHT22;11787;52.018;8.570;2023-04-01T00:31:10;9.70;99.90
23237;DHT22;11787;52.018;8.570;2023-04-01T00:33:36;9.70;99.90
23237;DHT22;11787;52.018;8.570;2023-04-01T00:36:10;9.60;99.90
23237;DHT22;11787;52.018;8.570;2023-04-01T00:38:37;9.60;99.90
23237;DHT22;11787;52.018;8.570;2023-04-01T00:41:03;9.70;99.90
23237;DHT22;11787;52.018;8.570;2023-04-01T00:43:30;9.60;99.90
23237;DHT22;11787;52.018;8.570;2023-04-01T00:45:56;9.60;99.90
23237;DHT22;11787;52.018;8.570;2023-04-01T00:48:30;9.60;99.90
23237;DHT22;11787;52.018;8.570;2023-04-01T00:51:05;9.60;99.90
23237;DHT22;11787;52.018;8.570;2023-04-01T00:53:33;9.60;99.90
23237;DHT22;11787;52.018;8.570;2023-04-01T00:56:04;9.60;99.90
23237;DHT22;11787;52.018;8.570;2023-04-01T00:58:34;9.60;99.90
23237;DHT22;11787;52.018;8.570;2023-04-01T01:01:01;9.60;99.90
23237;DHT22;11787;52.018;8.570;2023-04-01T01:03:27;9.60;99.90
23237;DHT22;11787;52.018;8.570;2023-04-01T01:06:07;9.60;99.90
23237;DHT22;11787;52.018;8.570;2023-04-01T01:11:54;9.60;99.90
23237;DHT22;11787;52.018;8.570;2023-04-01T01:14:55;9.60;99.90
23237;DHT22;11787;52.018;8.570;2023-04-01T01:29:01;9.70;99.90
23237;DHT22;11787;52.018;8.570;2023-04-01T01:31:47;9.60;99.90
23237;DHT22;11787;52.018;8.570;2023-04-01T01:35:10;9.60;99.90
23237;DHT22;11787;52.018;8.570;2023-04-01T01:37:40;9.70;99.90
23237;DHT22;11787;52.018;8.570;2023-04-01T01:40:09;9.70;99.90
23237;DHT22;11787;52.018;8.570;2023-04-01T01:42:39;9.60;99.90
23237;DHT22;11787;52.018;8.570;2023-04-01T01:45:07;9.60;99.90
23237;DHT22;11787;52.018;8.570;2023-04-01T01:47:34;9.70;99.90
23237;DHT22;11787;52.018;8.570;2023-04-01T01:50:01;9.70;99.90
23237;DHT22;11787;52.018;8.570;2023-04-01T01:52:28;9.60;99.90
23237;DHT22;11787;52.018;8.570;2023-04-01T01:54:56;9.60;99.90
23237;DHT22;11787;52.018;8.570;2023-04-01T01:57:36;9.60;99.90
23237;DHT22;11787;52.018;8.570;2023-04-01T02:00:07;9.60;99.90
23237;DHT22;11787;52.018;8.570;2023-04-01T02:02:40;9.70;99.90
23237;DHT22;11787;52.018;8.570;2023-04-01T02:05:08;9.60;99.90
23237;DHT22;11787;52.018;8.570;2023-04-01T02:07:35;9.60;99.90
23237;DHT22;11787;52.018;8.570;2023-04-01T02:10:02;9.60;99.90
23237;DHT22;11787;52.018;8.570;2023-04-01T02:12:29;9.60;99.90
23237;DHT22;11787;52.018;8.570;2023-04-01T02:15:11;9.60;99.90
23237;DHT22;11787;52.018;8.570;2023-04-01T02:17:41;9.50;99.90
23237;DHT22;11787;52.018;8.570;2023-04-01T02:20:13;9.50;99.90
23237;DHT22;11787;52.018;8.570;2023-04-01T02:22:53;9.50;99.90
23237;DHT22;11787;52.018;8.570;2023-04-01T02:25:24;9.50;99.90
23237;DHT22;11787;52.018;8.570;2023-04-01T02:27:50;9.50;99.90
23237;DHT22;11787;52.018;8.570;2023-04-01T02:30:17;9.50;99.90
23237;DHT22;11787;52.018;8.570;2023-04-01T02:32:43;9.50;99.90
23237;DHT22;11787;52.018;8.570;2023-04-01T02:35:11;9.40;99.90
23237;DHT22;11787;52.018;8.570;2023-04-01T02:37:39;9.40;99.90
23237;DHT22;11787;52.018;8.570;2023-04-01T02:40:10;9.50;99.90
23237;DHT22;11787;52.018;8.570;2023-04-01T02:42:36;9.50;99.90
23237;DHT22;11787;52.018;8.570;2023-04-01T02:45:02;9.40;99.90
23237;DHT22;11787;52.018;8.570;2023-04-01T02:47:28;9.40;99.90
23237;DHT22;11787;52.018;8.570;2023-04-01T02:49:54;9.50;99.90
23237;DHT22;11787;52.018;8.570;2023-04-01T02:52:24;9.50;99.90
23237;DHT22;11787;52.018;8.570;2023-04-01T02:54:50;9.50;99.90
23237;DHT22;11787;52.018;8.570;2023-04-01T02:57:15;9.40;99.90
23237;DHT22;11787;52.018;8.570;2023-04-01T02:59:41;9.40;99.90
23237;DHT22;11787;52.018;8.570;2023-04-01T03:02:06;9.40;99.90
23237;DHT22;11787;52.018;8.570;2023-04-01T03:04:32;9.40;99.90
23237;DHT22;11787;52.018;8.570;2023-04-01T03:06:58;9.40;99.90
23237;DHT22;11787;52.018;8.570;2023-04-01T03:09:23;9.50;99.90
23237;DHT22;11787;52.018;8.570;2023-04-01T03:11:49;9.50;99.90
23237;DHT22;11787;52.018;8.570;2023-04-01T03:14:15;9.50;99.90
23237;DHT22;11787;52.018;8.570;2023-04-01T03:16:40;9.50;99.90
23237;DHT22;11787;52.018;8.570;2023-04-01T03:19:06;9.50;99.90
23237;DHT22;11787;52.018;8.570;2023-04-01T03:21:31;9.50;99.90
23237;DHT22;11787;52.018;8.570;2023-04-01T03:23:57;9.50;99.90
23237;DHT22;11787;52.018;8.570;2023-04-01T03:26:24;9.50;99.90
23237;DHT22;11787;52.018;8.570;2023-04-01T03:28:52;9.50;99.90
23237;DHT22;11787;52.018;8.570;2023-04-01T03:31:17;9.50;99.90
23237;DHT22;11787;52.018;8.570;2023-04-01T03:33:43;9.40;99.90
23237;DHT22;11787;52.018;8.570;2023-04-01T03:36:09;9.40;99.90
23237;DHT22;11787;52.018;8.570;2023-04-01T03:38:36;9.40;99.90
23237;DHT22;11787;52.018;8.570;2023-04-01T03:41:02;9.40;99.90
23237;DHT22;11787;52.018;8.570;2023-04-01T03:43:28;9.40;99.90
23237;DHT22;11787;52.018;8.570;2023-04-01T03:45:53;9.40;99.90
23237;DHT22;11787;52.018;8.570;2023-04-01T03:48:20;9.40;99.90
23237;DHT22;11787;52.018;8.570;2023-04-01T03:50:46;9.40;99.90
23237;DHT22;11787;52.018;8.570;2023-04-01T03:53:12;9.40;99.90
23237;DHT22;11787;52.018;8.570;2023-04-01T03:55:38;9.40;99.90
23237;DHT22;11787;52.018;8.570;2023-04-01T03:58:05;9.40;99.90
23237;DHT22;11787;52.018;8.570;2023-04-01T04:00:31;9.40;99.90
23237;DHT22;11787;52.018;8.570;2023-04-01T04:02:57;9.40;99.90
23237;DHT22;11787;52.018;8.570;2023-04-01T04:05:24;9.40;99.90
23237;DHT22;11787;52.018;8.570;2023-04-01T04:07:50;9.40;99.90
23237;DHT22;11787;52.018;8.570;2023-04-01T04:10:16;9.40;99.90
23237;DHT22;11787;52.018;8.570;2023-04-01T04:12:41;9.40;99.90
23237;DHT22;11787;52.018;8.570;2023-04-01T04:15:08;9.40;99.90
23237;DHT22;11787;52.018;8.570;2023-04-01T04:17:33;9.30;99.90
23237;DHT22;11787;52.018;8.570;2023-04-01T04:19:59;9.30;99.90
23237;DHT22;11787;52.018;8.570;2023-04-01T04:22:25;9.30;99.90
23237;DHT22;11787;52.018;8.570;2023-04-01T04:24:50;9.30;99.90
23237;DHT22;11787;52.018;8.570;2023-04-01T04:27:16;9.30;99.90
23237;DHT22;11787;52.018;8.570;2023-04-01T04:29:42;9.30;99.90
23237;DHT22;11787;52.018;8.570;2023-04-01T04:32:08;9.30;99.90
23237;DHT22;11787;52.018;8.570;2023-04-01T04:34:34;9.30;99.90
23237;DHT22;11787;52.018;8.570;2023-04-01T04:36:59;9.30;99.90
23237;DHT22;11787;52.018;8.570;2023-04-01T04:39:25;9.30;99.90
23237;DHT22;11787;52.018;8.570;2023-04-01T04:41:51;9.30;99.90
23237;DHT22;11787;52.018;8.570;2023-04-01T04:44:16;9.30;99.90
23237;DHT22;11787;52.018;8.570;2023-04-01T04:46:42;9.30;99.90
23237;DHT22;11787;52.018;8.570;2023-04-01T04:49:07;9.30;99.90
23237;DHT22;11787;52.018;8.570;2023-04-01T04:51:33;9.30;99.90
23237;DHT22;11787;52.018;8.570;2023-04-01T04:54:04;9.30;99.90
23237;DHT22;11787;52.018;8.570;2023-04-01T04:56:30;9.20;99.90
23237;DHT22;11787;52.018;8.570;2023-04-01T04:58:56;9.30;99.90
23237;DHT22;11787;52.018;8.570;2023-04-01T05:01:22;9.30;99.90
23237;DHT22;11787;52.018;8.570;2023-04-01T05:03:48;9.20;99.90
23237;DHT22;11787;52.018;8.570;2023-04-01T05:06:14;9.20;99.90
23237;DHT22;11787;52.018;8.570;2023-04-01T05:08:41;9.30;99.90
23237;DHT22;11787;52.018;8.570;2023-04-01T05:11:13;9.30;99.90
23237;DHT22;11787;52.018;8.570;2023-04-01T05:13:39;9.20;99.90
23237;DHT22;11787;52.018;8.570;2023-04-01T05:16:12;9.20;99.90
23237;DHT22;11787;52.018;8.570;2023-04-01T05:18:38;9.20;99.90
23237;DHT22;11787;52.018;8.570;2023-04-01T05:21:04;9.20;99.90
23237;DHT22;11787;52.018;8.570;2023-04-01T05:23:30;9.20;99.90
23237;DHT22;11787;52.018;8.570;2023-04-01T05:25:56;9.20;99.90
23237;DHT22;11787;52.018;8.570;2023-04-01T05:28:22;9.20;99.90
23237;DHT22;11787;52.018;8.570;2023-04-01T05:30:48;9.20;99.90
23237;DHT22;11787;52.018;8.570;2023-04-01T05:33:14;9.20;99.90
23237;DHT22;11787;52.018;8.570;2023-04-01T05:35:40;9.20;99.90
23237;DHT22;11787;52.018;8.570;2023-04-01T05:38:06;9.10;99.90
23237;DHT22;11787;52.018;8.570;2023-04-01T05:40:32;9.10;99.90
23237;DHT22;11787;52.018;8.570;2023-04-01T05:42:59;9.10;99.90
23237;DHT22;11787;52.018;8.570;2023-04-01T05:45:26;9.10;99.90
23237;DHT22;11787;52.018;8.570;2023-04-01T05:47:51;9.10;99.90
23237;DHT22;11787;52.018;8.570;2023-04-01T05:50:17;9.10;99.90
23237;DHT22;11787;52.018;8.570;2023-04-01T05:52:43;9.10;99.90
23237;DHT22;11787;52.018;8.570;2023-04-01T05:55:10;9.10;99.90
23237;DHT22;11787;52.018;8.570;2023-04-01T05:57:35;9.10;99.90
23237;DHT22;11787;52.018;8.570;2023-04-01T06:00:02;9.10;99.90
23237;DHT22;11787;52.018;8.570;2023-04-01T06:02:28;9.10;99.90
23237;DHT22;11787;52.018;8.570;2023-04-01T06:05:11;9.10;99.90
23237;DHT22;11787;52.018;8.570;2023-04-01T06:07:37;9.10;99.90
23237;DHT22;11787;52.018;8.570;2023-04-01T06:10:18;9.10;99.90
23237;DHT22;11787;52.018;8.570;2023-04-01T06:15:36;9.10;99.90
23237;DHT22;11787;52.018;8.570;2023-04-01T06:21:23;9.20;99.90
23237;DHT22;11787;52.018;8.570;2023-04-01T06:26:35;9.30;99.90
23237;DHT22;11787;52.018;8.570;2023-04-01T06:40:26;9.60;99.90
23237;DHT22;11787;52.018;8.570;2023-04-01T06:54:20;9.60;99.90
23237;DHT22;11787;52.018;8.570;2023-04-01T06:56:51;9.70;99.90
23237;DHT22;11787;52.018;8.570;2023-04-01T06:59:24;9.70;99.90
23237;DHT22;11787;52.018;8.570;2023-04-01T07:02:19;9.70;99.90
23237;DHT22;11787;52.018;8.570;2023-04-01T07:04:50;9.70;99.90
23237;DHT22;11787;52.018;8.570;2023-04-01T07:07:41;9.70;99.90
23237;DHT22;11787;52.018;8.570;2023-04-01T07:10:15;9.70;99.90
23237;DHT22;11787;52.018;8.570;2023-04-01T07:13:00;9.70;99.90
23237;DHT22;11787;52.018;8.570;2023-04-01T07:15:33;9.60;99.90
23237;DHT22;11787;52.018;8.570;2023-04-01T07:18:14;9.60;99.90
23237;DHT22;11787;52.018;8.570;2023-04-01T07:20:41;9.60;99.90
23237;DHT22;11787;52.018;8.570;2023-04-01T07:26:32;9.60;99.90
23237;DHT22;11787;52.018;8.570;2023-04-01T07:28:39;9.60;99.90
23237;DHT22;11787;52.018;8.570;2023-04-01T07:31:22;9.60;99.90
23237;DHT22;11787;52.018;8.570;2023-04-01T07:36:40;9.60;99.90
23237;DHT22;11787;52.018;8.570;2023-04-01T07:53:01;9.80;99.90
23237;DHT22;11787;52.018;8.570;2023-04-01T07:58:34;9.80;99.90
23237;DHT22;11787;52.018;8.570;2023-04-01T08:04:22;9.90;99.90
23237;DHT22;11787;52.018;8.570;2023-04-01T08:15:20;10.00;99.90
23237;DHT22;11787;52.018;8.570;2023-04-01T08:25:40;10.20;99.90
23237;DHT22;11787;52.018;8.570;2023-04-01T08:33:29;10.40;99.90
23237;DHT22;11787;52.018;8.570;2023-04-01T08:36:15;10.40;99.90
23237;DHT22;11787;52.018;8.570;2023-04-01T08:39:07;10.40;99.90
23237;DHT22;11787;52.018;8.570;2023-04-01T08:50:01;10.70;99.90
23237;DHT22;11787;52.018;8.570;2023-04-01T08:52:35;10.70;99.90
23237;DHT22;11787;52.018;8.570;2023-04-01T08:55:25;10.70;99.90
23237;DHT22;11787;52.018;8.570;2023-04-01T09:06:33;10.90;99.90
23237;DHT22;11787;52.018;8.570;2023-04-01T09:12:10;10.90;99.90
23237;DHT22;11787;52.018;8.570;2023-04-01T09:15:02;11.00;99.90
23237;DHT22;11787;52.018;8.570;2023-04-01T09:18:22;11.10;99.90
23237;DHT22;11787;52.018;8.570;2023-04-01T09:23:58;11.20;99.90
23237;DHT22;11787;52.018;8.570;2023-04-01T09:32:17;11.50;99.90
23237;DHT22;11787;52.018;8.570;2023-04-01T09:35:17;11.60;99.90
23237;DHT22;11787;52.018;8.570;2023-04-01T09:40:18;11.80;99.90
23237;DHT22;11787;52.018;8.570;2023-04-01T09:46:07;11.80;99.90
23237;DHT22;11787;52.018;8.570;2023-04-01T09:51:48;11.80;99.90
23237;DHT22;11787;52.018;8.570;2023-04-01T10:02:42;11.80;99.90
23237;DHT22;11787;52.018;8.570;2023-04-01T10:11:15;11.70;99.90
23237;DHT22;11787;52.018;8.570;2023-04-01T10:19:53;11.70;99.90
23237;DHT22;11787;52.018;8.570;2023-04-01T10:31:02;12.50;99.90
23237;DHT22;11787;52.018;8.570;2023-04-01T10:36:48;12.50;99.90
23237;DHT22;11787;52.018;8.570;2023-04-01T10:45:13;12.50;99.90
23237;DHT22;11787;52.018;8.570;2023-04-01T10:56:39;12.40;99.90
23237;DHT22;11787;52.018;8.570;2023-04-01T11:11:17;12.30;99.90
23237;DHT22;11787;52.018;8.570;2023-04-01T11:27:56;12.60;99.90
23237;DHT22;11787;52.018;8.570;2023-04-01T11:36:59;12.50;99.90
23237;DHT22;11787;52.018;8.570;2023-04-01T11:45:10;12.70;99.90
23237;DHT22;11787;52.018;8.570;2023-04-01T11:53:59;12.70;99.90
23237;DHT22;11787;52.018;8.570;2023-04-01T12:04:42;12.70;99.90
23237;DHT22;11787;52.018;8.570;2023-04-01T12:10:20;12.80;99.90
23237;DHT22;11787;52.018;8.570;2023-04-01T12:33:42;12.90;99.90
23237;DHT22;11787;52.018;8.570;2023-04-01T12:38:29;12.90;99.90
23237;DHT22;11787;52.018;8.570;2023-04-01T13:15:12;12.80;99.90
23237;DHT22;11787;52.018;8.570;2023-04-01T13:21:05;12.80;99.90
23237;DHT22;11787;52.018;8.570;2023-04-01T13:43:04;12.70;99.90
23237;DHT22;11787;52.018;8.570;2023-04-01T13:59:59;12.60;99.90
23237;DHT22;11787;52.018;8.570;2023-04-01T14:05:44;12.60;99.90
23237;DHT22;11787;52.018;8.570;2023-04-01T14:31:18;12.30;99.90
23237;DHT22;11787;52.018;8.570;2023-04-01T14:34:06;12.30;99.90
23237;DHT22;11787;52.018;8.570;2023-04-01T14:42:41;12.40;99.90
23237;DHT22;11787;52.018;8.570;2023-04-01T14:48:38;12.50;99.90
23237;DHT22;11787;52.018;8.570;2023-04-01T14:51:14;12.50;99.90
23237;DHT22;11787;52.018;8.570;2023-04-01T14:54:14;12.70;99.90
23237;DHT22;11787;52.018;8.570;2023-04-01T14:57:03;12.70;99.90
23237;DHT22;11787;52.018;8.570;2023-04-01T14:59:30;12.70;99.90
23237;DHT22;11787;52.018;8.570;2023-04-01T15:07:35;12.90;99.90
23237;DHT22;11787;52.018;8.570;2023-04-01T15:24:40;12.70;99.90
23237;DHT22;11787;52.018;8.570;2023-04-01T15:27:41;12.60;99.90
23237;DHT22;11787;52.018;8.570;2023-04-01T15:37:59;12.40;99.90
23237;DHT22;11787;52.018;8.570;2023-04-01T15:40:47;12.40;99.90
23237;DHT22;11787;52.018;8.570;2023-04-01T15:44:24;12.30;99.90
23237;DHT22;11787;52.018;8.570;2023-04-01T15:46:30;12.20;99.90
23237;DHT22;11787;52.018;8.570;2023-04-01T15:51:56;12.10;99.90
23237;DHT22;11787;52.018;8.570;2023-04-01T15:57:28;12.00;99.90
23237;DHT22;11787;52.018;8.570;2023-04-01T16:00:11;12.10;99.90
23237;DHT22;11787;52.018;8.570;2023-04-01T16:02:44;12.10;99.90
23237;DHT22;11787;52.018;8.570;2023-04-01T16:05:49;12.10;99.90
23237;DHT22;11787;52.018;8.570;2023-04-01T16:13:54;12.00;99.90
23237;DHT22;11787;52.018;8.570;2023-04-01T16:16:41;11.90;99.90
23237;DHT22;11787;52.018;8.570;2023-04-01T16:19:49;11.80;99.90
23237;DHT22;11787;52.018;8.570;2023-04-01T16:22:28;11.70;99.90
23237;DHT22;11787;52.018;8.570;2023-04-01T16:28:05;11.60;99.90
23237;DHT22;11787;52.018;8.570;2023-04-01T16:30:38;11.60;99.90
23237;DHT22;11787;52.018;8.570;2023-04-01T16:50:46;11.40;99.90
23237;DHT22;11787;52.018;8.570;2023-04-01T16:55:57;11.40;99.90
23237;DHT22;11787;52.018;8.570;2023-04-01T16:58:48;11.40;99.90
23237;DHT22;11787;52.018;8.570;2023-04-01T17:01:16;11.40;99.90
23237;DHT22;11787;52.018;8.570;2023-04-01T17:03:45;11.40;99.90
23237;DHT22;11787;52.018;8.570;2023-04-01T17:06:19;11.40;99.90
23237;DHT22;11787;52.018;8.570;2023-04-01T17:11:44;11.50;99.90
23237;DHT22;11787;52.018;8.570;2023-04-01T17:17:01;11.50;99.90
23237;DHT22;11787;52.018;8.570;2023-04-01T17:19:41;11.40;99.90
23237;DHT22;11787;52.018;8.570;2023-04-01T17:22:31;11.40;99.90
23237;DHT22;11787;52.018;8.570;2023-04-01T17:25:38;11.40;99.90
23237;DHT22;11787;52.018;8.570;2023-04-01T17:28:20;11.40;99.90
23237;DHT22;11787;52.018;8.570;2023-04-01T17:42:22;10.50;99.90
23237;DHT22;11787;52.018;8.570;2023-04-01T17:56:44;10.20;99.90
23237;DHT22;11787;52.018;8.570;2023-04-01T18:04:17;10.00;99.90
23237;DHT22;11787;52.018;8.570;2023-04-01T18:06:55;10.00;99.90
23237;DHT22;11787;52.018;8.570;2023-04-01T18:09:27;10.00;99.90
23237;DHT22;11787;52.018;8.570;2023-04-01T18:12:06;9.80;99.90
23237;DHT22;11787;52.018;8.570;2023-04-01T18:22:18;9.80;99.90
23237;DHT22;11787;52.018;8.570;2023-04-01T18:24:45;9.80;99.90
23237;DHT22;11787;52.018;8.570;2023-04-01T18:29:46;9.70;99.90
23237;DHT22;11787;52.018;8.570;2023-04-01T18:37:44;9.50;99.90
23237;DHT22;11787;52.018;8.570;2023-04-01T18:43:10;9.50;99.90
23237;DHT22;11787;52.018;8.570;2023-04-01T18:45:45;9.60;99.90
23237;DHT22;11787;52.018;8.570;2023-04-01T18:51:09;9.40;99.90
23237;DHT22;11787;52.018;8.570;2023-04-01T18:54:09;9.40;99.90
23237;DHT22;11787;52.018;8.570;2023-04-01T18:56:40;9.30;99.90
23237;DHT22;11787;52.018;8.570;2023-04-01T18:59:32;9.20;99.90
23237;DHT22;11787;52.018;8.570;2023-04-01T19:04:45;9.20;99.90
23237;DHT22;11787;52.018;8.570;2023-04-01T19:10:06;9.10;99.90
23237;DHT22;11787;52.018;8.570;2023-04-01T19:12:39;9.10;99.90
23237;DHT22;11787;52.018;8.570;2023-04-01T19:15:22;9.10;99.90
23237;DHT22;11787;52.018;8.570;2023-04-01T19:17:58;9.00;99.90
23237;DHT22;11787;52.018;8.570;2023-04-01T19:23:06;8.80;99.90
23237;DHT22;11787;52.018;8.570;2023-04-01T19:28:16;8.80;99.90
23237;DHT22;11787;52.018;8.570;2023-04-01T19:30:52;8.80;99.90
23237;DHT22;11787;52.018;8.570;2023-04-01T19:33:35;8.80;99.90
23237;DHT22;11787;52.018;8.570;2023-04-01T19:41:34;8.60;99.90
23237;DHT22;11787;52.018;8.570;2023-04-01T19:44:04;8.50;99.90
23237;DHT22;11787;52.018;8.570;2023-04-01T19:46:51;8.40;99.90
23237;DHT22;11787;52.018;8.570;2023-04-01T19:49:23;8.40;99.90
23237;DHT22;11787;52.018;8.570;2023-04-01T20:12:30;8.00;99.90
23237;DHT22;11787;52.018;8.570;2023-04-01T20:15:00;8.00;99.90
23237;DHT22;11787;52.018;8.570;2023-04-01T20:25:24;7.90;99.90
23237;DHT22;11787;52.018;8.570;2023-04-01T20:28:01;7.90;99.90
23237;DHT22;11787;52.018;8.570;2023-04-01T20:36:03;7.90;99.90
23237;DHT22;11787;52.018;8.570;2023-04-01T20:41:33;7.90;99.90
23237;DHT22;11787;52.018;8.570;2023-04-01T20:44:20;7.80;99.90
23237;DHT22;11787;52.018;8.570;2023-04-01T20:46:55;7.80;99.90
23237;DHT22;11787;52.018;8.570;2023-04-01T20:57:36;7.70;99.90
23237;DHT22;11787;52.018;8.570;2023-04-01T21:11:01;7.50;99.90
23237;DHT22;11787;52.018;8.570;2023-04-01T21:36:28;7.20;99.90
23237;DHT22;11787;52.018;8.570;2023-04-01T21:56:44;6.90;99.90
23237;DHT22;11787;52.018;8.570;2023-04-01T22:05:17;6.70;99.90
23237;DHT22;11787;52.018;8.570;2023-04-01T22:08:01;6.70;99.90
23237;DHT22;11787;52.018;8.570;2023-04-01T22:10:40;6.70;99.90
23237;DHT22;11787;52.018;8.570;2023-04-01T22:13:28;6.70;99.90
23237;DHT22;11787;52.018;8.570;2023-04-01T22:23:39;6.60;99.90
23237;DHT22;11787;52.018;8.570;2023-04-01T22:26:16;6.60;99.90
23237;DHT22;11787;52.018;8.570;2023-04-01T22:28:55;6.60;99.90
23237;DHT22;11787;52.018;8.570;2023-04-01T22:31:28;6.50;99.90
23237;DHT22;11787;52.018;8.570;2023-04-01T22:37:17;6.30;99.90
23237;DHT22;11787;52.018;8.570;2023-04-01T22:42:57;6.30;99.90
23237;DHT22;11787;52.018;8.570;2023-04-01T22:45:43;6.20;99.90
23237;DHT22;11787;52.018;8.570;2023-04-01T22:59:42;6.20;99.90
23237;DHT22;11787;52.018;8.570;2023-04-01T23:02:23;6.20;99.90
23237;DHT22;11787;52.018;8.570;2023-04-01T23:04:55;6.20;99.90
23237;DHT22;11787;52.018;8.570;2023-04-01T23:12:59;6.20;99.90
23237;DHT22;11787;52.018;8.570;2023-04-01T23:15:27;6.10;99.90
23237;DHT22;11787;52.018;8.570;2023-04-01T23:20:52;6.10;99.90
23237;DHT22;11787;52.018;8.570;2023-04-01T23:23:41;6.10;99.90
23237;DHT22;11787;52.018;8.570;2023-04-01T23:28:56;6.20;99.90
23237;DHT22;11787;52.018;8.570;2023-04-01T23:31:25;6.20;99.90
23237;DHT22;11787;52.018;8.570;2023-04-01T23:36:52;6.00;99.90
23237;DHT22;11787;52.018;8.570;2023-04-01T23:39:36;6.00;99.90
23237;DHT22;11787;52.018;8.570;2023-04-01T23:42:15;5.90;99.90
23237;DHT22;11787;52.018;8.570;2023-04-01T23:44:45;6.00;99.90
23237;DHT22;11787;52.018;8.570;2023-04-01T23:47:15;5.90;99.90
23237;DHT22;11787;52.018;8.570;2023-04-01T23:49:46;5.90;99.90
23237;DHT22;11787;52.018;8.570;2023-04-01T23:52:22;5.80;99.90
23237;DHT22;11787;52.018;8.570;2023-04-01T23:54:58;5.80;99.90
23237;DHT22;11787;52.018;8.570;2023-04-01T23:57:33;5.80;99.90
